createdAt,value
2022-11-05T06:14:14.203Z,22.25
2022-11-05T06:16:42.087Z,19.20
2022-11-05T06:19:09.841Z,20.23
2022-11-05T06:21:37.615Z,19.38
2022-11-05T06:24:05.500Z,19.70
2022-11-05T06:26:33.156Z,16.55
2022-11-05T06:29:00.807Z,17.10
2022-11-05T06:31:28.453Z,26.83
2022-11-05T06:33:56.062Z,26.17
2022-11-05T06:36:23.702Z,25.42
2022-11-05T06:38:51.307Z,25.60
2022-11-05T06:41:18.922Z,23.40
2022-11-05T06:43:46.607Z,23.30
2022-11-05T06:46:14.399Z,24.15
2022-11-05T06:48:42.000Z,26.67
2022-11-05T06:51:09.911Z,28.73
2022-11-05T06:53:37.589Z,26.73
2022-11-05T06:56:07.288Z,29.85
2022-11-05T06:58:35.713Z,25.95
2022-11-05T07:01:09.207Z,30.20
2022-11-05T07:03:38.670Z,28.15
2022-11-05T07:06:07.985Z,30.73
2022-11-05T07:08:38.051Z,24.40
2022-11-05T07:11:06.129Z,20.75
2022-11-05T07:13:33.862Z,16.40
2022-11-05T07:16:01.479Z,17.75
2022-11-05T07:18:29.294Z,19.70
2022-11-05T07:20:57.066Z,18.45
2022-11-05T07:23:24.849Z,17.83
2022-11-05T07:25:52.571Z,17.88
2022-11-05T07:28:20.299Z,16.60
2022-11-05T07:30:48.470Z,15.63
2022-11-05T07:33:16.114Z,12.48
2022-11-05T07:35:43.776Z,14.20
2022-11-05T07:38:11.887Z,12.18
2022-11-05T07:40:39.506Z,7.20
2022-11-05T07:43:07.471Z,7.20
2022-11-05T07:45:35.165Z,6.47
2022-11-05T07:48:04.563Z,3.67
2022-11-05T07:50:35.669Z,3.28
2022-11-05T07:53:14.145Z,3.33
2022-11-05T07:55:43.888Z,3.45
2022-11-05T07:58:11.708Z,3.30
2022-11-05T08:00:39.718Z,4.13
2022-11-05T08:03:13.043Z,2.80
2022-11-05T08:05:46.044Z,3.53
2022-11-05T08:08:17.211Z,3.30
2022-11-05T08:10:45.479Z,4.35
2022-11-05T08:13:14.781Z,7.15
2022-11-05T08:15:43.716Z,6.38
2022-11-05T08:18:17.761Z,5.65
2022-11-05T08:20:47.016Z,4.32
2022-11-05T08:23:15.426Z,8.93
2022-11-05T08:25:43.265Z,8.63
2022-11-05T08:28:13.650Z,11.40
2022-11-05T08:30:41.689Z,6.00
2022-11-05T08:33:14.606Z,6.63
2022-11-05T08:35:42.989Z,4.47
2022-11-05T08:38:13.925Z,5.15
2022-11-05T08:40:43.611Z,4.00
2022-11-05T08:43:14.688Z,5.35
2022-11-05T08:45:42.881Z,5.07
2022-11-05T08:48:15.151Z,4.43
2022-11-05T08:50:46.020Z,8.15
2022-11-05T08:53:14.869Z,10.10
2022-11-05T08:55:44.100Z,6.68
2022-11-05T08:58:15.394Z,8.88
2022-11-05T09:00:46.140Z,8.02
2022-11-05T09:03:14.803Z,8.40
2022-11-05T09:05:43.480Z,8.60
2022-11-05T09:08:17.810Z,9.77
2022-11-05T09:10:47.774Z,7.82
2022-11-05T09:13:19.233Z,5.28
2022-11-05T09:15:51.698Z,6.43
2022-11-05T09:18:20.611Z,5.60
2022-11-05T09:20:49.419Z,4.63
2022-11-05T09:23:18.573Z,5.65
2022-11-05T09:25:46.679Z,4.07
2022-11-05T09:28:21.523Z,3.28
2022-11-05T09:30:51.941Z,4.47
2022-11-05T09:33:24.104Z,5.55
2022-11-05T09:35:53.651Z,3.40
2022-11-05T09:38:21.427Z,4.50
2022-11-05T09:41:00.970Z,4.65
2022-11-05T09:43:34.682Z,8.32
2022-11-05T09:46:16.614Z,5.05
2022-11-05T09:48:49.807Z,6.25
2022-11-05T09:51:23.676Z,5.47
2022-11-05T09:53:53.641Z,5.85
2022-11-05T09:56:28.479Z,4.68
2022-11-05T09:59:12.573Z,3.20
2022-11-05T10:01:43.381Z,2.70
2022-11-05T10:04:22.430Z,2.53
2022-11-05T10:06:56.851Z,3.08
2022-11-05T10:09:33.427Z,3.65
2022-11-05T10:12:24.420Z,4.72
2022-11-05T10:15:14.328Z,5.75
2022-11-05T10:17:51.058Z,2.45
2022-11-05T10:20:37.616Z,3.65
2022-11-05T10:23:19.361Z,4.13
2022-11-05T10:25:53.525Z,7.20
2022-11-05T10:28:25.688Z,3.63
2022-11-05T10:31:01.376Z,2.22
2022-11-05T10:33:59.917Z,3.38
2022-11-05T10:36:38.028Z,2.30
2022-11-05T10:39:19.172Z,2.92
2022-11-05T10:42:04.989Z,2.92
2022-11-05T10:44:58.533Z,2.05
2022-11-05T10:47:48.220Z,3.85
2022-11-05T10:50:25.943Z,6.35
2022-11-05T10:53:15.140Z,3.40
2022-11-05T10:55:48.353Z,2.95
2022-11-05T10:58:15.924Z,4.80
2022-11-05T11:01:10.957Z,2.88
2022-11-05T11:03:51.282Z,4.30
2022-11-05T11:06:26.609Z,2.95
2022-11-05T11:08:58.360Z,2.65
2022-11-05T11:11:45.270Z,5.13
2022-11-05T11:14:12.915Z,3.50
2022-11-05T11:16:44.230Z,3.10
2022-11-05T11:19:23.738Z,3.70
2022-11-05T11:22:03.188Z,4.82
2022-11-05T11:24:38.716Z,4.70
2022-11-05T11:27:24.126Z,3.35
2022-11-05T11:30:02.634Z,7.13
2022-11-05T11:32:39.984Z,3.55
2022-11-05T11:35:24.113Z,2.83
2022-11-05T11:37:58.070Z,3.53
2022-11-05T11:40:35.048Z,3.20
2022-11-05T11:43:27.015Z,3.10
2022-11-05T11:46:03.757Z,3.80
2022-11-05T11:48:36.432Z,3.35
2022-11-05T11:51:32.537Z,4.10
2022-11-05T11:54:02.033Z,3.83
2022-11-05T11:56:31.468Z,2.90
2022-11-05T11:59:18.538Z,5.78
2022-11-05T12:03:01.857Z,3.10
2022-11-05T12:05:38.647Z,2.85
2022-11-05T12:09:07.162Z,1.95
2022-11-05T12:11:56.094Z,2.47
2022-11-05T12:14:59.647Z,3.28
2022-11-05T12:17:52.398Z,3.17
2022-11-05T12:20:48.488Z,2.70
2022-11-05T12:24:06.680Z,3.08
2022-11-05T12:27:14.713Z,2.10
2022-11-05T12:30:22.155Z,3.00
2022-11-05T12:33:35.332Z,2.25
2022-11-05T12:36:09.209Z,2.20
2022-11-05T12:39:14.720Z,2.10
2022-11-05T12:42:26.851Z,13.18
2022-11-05T12:44:54.485Z,6.20
2022-11-05T12:47:32.243Z,4.95
2022-11-05T12:50:26.907Z,2.88
2022-11-05T12:53:12.673Z,4.22
2022-11-05T12:55:48.837Z,3.17
2022-11-05T12:58:26.181Z,3.38
2022-11-05T13:03:53.372Z,2.80
2022-11-05T13:06:45.229Z,3.15
2022-11-05T13:09:50.772Z,2.97
2022-11-05T13:12:23.101Z,3.25
2022-11-05T13:15:02.261Z,4.45
2022-11-05T13:17:58.480Z,3.75
2022-11-05T13:20:42.414Z,4.85
2022-11-05T13:23:40.098Z,4.25
2022-11-05T13:26:42.291Z,3.53
2022-11-05T13:29:20.294Z,3.67
2022-11-05T13:32:01.527Z,4.25
2022-11-05T13:34:33.445Z,4.40
2022-11-05T13:37:27.833Z,2.88
2022-11-05T13:40:09.636Z,5.95
2022-11-05T13:43:17.923Z,4.32
2022-11-05T13:46:39.190Z,3.90
2022-11-05T13:49:37.421Z,3.40
2022-11-05T13:52:59.999Z,3.05
2022-11-05T13:56:23.191Z,3.03
2022-11-05T13:59:18.492Z,4.30
2022-11-05T14:01:58.239Z,4.85
2022-11-05T14:04:47.099Z,2.90
2022-11-05T14:07:33.218Z,4.22
2022-11-05T14:10:35.290Z,5.07
2022-11-05T14:13:34.240Z,4.38
2022-11-05T14:16:22.941Z,4.80
2022-11-05T14:19:18.262Z,3.30
2022-11-05T14:21:53.099Z,3.40
2022-11-05T14:24:24.058Z,2.92
2022-11-05T14:27:01.040Z,3.10
2022-11-05T14:29:50.008Z,4.38
2022-11-05T14:32:17.700Z,2.78
2022-11-05T14:35:02.348Z,3.35
2022-11-05T14:37:42.154Z,3.20
2022-11-05T14:40:40.293Z,4.70
2022-11-05T14:43:26.838Z,3.33
2022-11-05T14:46:03.315Z,3.42
2022-11-05T14:48:41.357Z,5.15
2022-11-05T14:51:46.021Z,3.83
2022-11-05T14:54:33.388Z,2.53
2022-11-05T14:57:03.301Z,4.00
2022-11-05T14:59:50.993Z,4.38
2022-11-05T15:02:25.102Z,7.20
2022-11-05T15:05:40.288Z,3.63
2022-11-05T15:08:36.729Z,6.47
2022-11-05T15:11:33.014Z,6.60
2022-11-05T15:14:16.773Z,4.30
2022-11-05T15:16:53.267Z,8.90
2022-11-05T15:19:31.482Z,5.00
2022-11-05T15:22:33.464Z,5.78
2022-11-05T15:25:02.057Z,4.78
2022-11-05T15:27:50.665Z,5.38
2022-11-05T15:30:22.212Z,9.35
2022-11-05T15:32:51.139Z,6.82
2022-11-05T15:35:27.729Z,9.63
2022-11-05T15:38:02.100Z,7.88
2022-11-05T15:40:33.088Z,10.85
2022-11-05T15:43:17.795Z,15.50
2022-11-05T15:46:31.349Z,38.22
2022-11-05T15:49:06.634Z,21.70
2022-11-05T15:51:36.253Z,12.73
2022-11-05T15:54:28.988Z,4.85
2022-11-05T15:57:00.405Z,9.38
2022-11-05T15:59:30.790Z,11.23
2022-11-05T16:02:34.967Z,18.48
2022-11-05T16:05:12.305Z,12.80
2022-11-05T16:10:30.800Z,5.68
2022-11-05T16:13:37.966Z,4.47
2022-11-05T16:16:24.521Z,7.78
2022-11-05T16:18:52.865Z,12.13
2022-11-05T16:21:23.324Z,7.93
2022-11-05T16:23:59.505Z,10.07
2022-11-05T16:29:39.426Z,14.55
2022-11-05T16:32:30.654Z,9.57
2022-11-05T16:35:06.218Z,9.23
2022-11-05T16:37:46.346Z,7.40
2022-11-05T16:40:24.931Z,6.47
2022-11-05T16:42:54.344Z,7.30
2022-11-05T16:45:25.734Z,12.27
2022-11-05T16:47:53.635Z,12.93
2022-11-05T16:50:26.332Z,14.70
2022-11-05T16:52:54.383Z,11.45
2022-11-05T16:55:22.178Z,11.23
2022-11-05T16:57:55.309Z,7.22
2022-11-05T17:00:24.731Z,9.48
2022-11-05T17:02:53.354Z,9.93
2022-11-05T17:05:31.237Z,9.50
2022-11-05T17:08:00.758Z,7.72
2022-11-05T17:10:28.650Z,9.23
2022-11-05T17:12:56.995Z,19.02
2022-11-05T17:15:35.833Z,21.85
2022-11-05T17:18:06.086Z,17.90
2022-11-05T17:20:44.379Z,14.45
2022-11-05T17:23:16.413Z,21.38
2022-11-05T17:25:52.478Z,15.23
2022-11-05T17:28:21.743Z,18.20
2022-11-05T17:30:52.973Z,17.67
2022-11-05T17:33:23.398Z,14.00
2022-11-05T17:35:52.620Z,16.52
2022-11-05T17:38:22.283Z,13.23
2022-11-05T17:40:50.792Z,11.20
2022-11-05T17:43:20.275Z,8.82
2022-11-05T17:45:52.113Z,12.65
2022-11-05T17:48:21.412Z,16.63
2022-11-05T17:50:51.023Z,12.05
2022-11-05T17:53:20.014Z,12.50
2022-11-05T17:55:48.552Z,13.95
2022-11-05T17:58:16.520Z,11.63
2022-11-05T18:00:45.992Z,6.97
2022-11-05T18:03:14.913Z,5.93
2022-11-05T18:05:43.514Z,8.95
2022-11-05T18:08:12.680Z,10.30
2022-11-05T18:10:41.890Z,11.63
2022-11-05T18:13:11.306Z,8.98
2022-11-05T18:15:41.556Z,7.30
2022-11-05T18:18:09.778Z,5.88
2022-11-05T18:20:39.141Z,7.45
2022-11-05T18:23:07.166Z,7.25
2022-11-05T18:25:35.095Z,5.00
2022-11-05T18:28:03.519Z,5.93
2022-11-05T18:30:31.355Z,8.52
2022-11-05T18:32:59.119Z,7.63
2022-11-05T18:35:27.000Z,8.77
2022-11-05T18:37:54.784Z,10.23
2022-11-05T18:40:22.971Z,16.90
